Time;durP1;ratioP1;P1;durP2;ratioP2;P2;SDS_P1;SDS_P2;PMS_P1;PMS_P2;Temp;Humidity;BMP_temperature;BMP_pressure;BME280_temperature;BME280_humidity;BME280_pressure;Samples;Min_cycle;Max_cycle;Signal;HPM_P1;HPM_P2
2023/03/12 00:01:21;;;;;;;5.20;3.30;;;0.70;99.90;;;;;;5002737;28;20034;-57
2023/03/12 00:04:07;;;;;;;4.72;3.42;;;0.60;99.90;;;;;;5015544;28;20409;-54
2023/03/12 00:06:53;;;;;;;8.45;3.28;;;0.70;99.90;;;;;;5024295;28;20038;-53
2023/03/12 00:09:39;;;;;;;6.10;3.40;;;0.70;99.90;;;;;;5006062;28;20099;-57
2023/03/12 00:12:25;;;;;;;6.63;3.03;;;0.60;99.90;;;;;;5025290;28;20088;-51
2023/03/12 00:15:11;;;;;;;6.43;2.90;;;0.60;99.90;;;;;;5031691;28;20030;-57
2023/03/12 00:17:57;;;;;;;4.88;3.38;;;0.60;99.90;;;;;;5020132;28;20076;-55
2023/03/12 00:20:51;;;;;;;6.95;3.38;;;0.60;99.90;;;;;;5013850;28;20441;-57
2023/03/12 00:23:37;;;;;;;8.45;3.50;;;0.60;99.90;;;;;;5025971;28;20018;-54
2023/03/12 00:26:23;;;;;;;6.88;3.55;;;0.60;99.90;;;;;;5026907;28;20030;-54
2023/03/12 00:29:09;;;;;;;6.68;3.38;;;0.60;99.90;;;;;;5024721;28;20065;-56
2023/03/12 00:31:55;;;;;;;5.50;3.42;;;0.60;99.90;;;;;;5023565;28;20383;-53
2023/03/12 00:34:41;;;;;;;7.68;3.40;;;0.50;99.90;;;;;;5029130;28;20494;-54
2023/03/12 00:37:27;;;;;;;7.28;3.42;;;0.50;99.90;;;;;;5017028;28;20033;-57
2023/03/12 00:40:13;;;;;;;7.95;3.40;;;0.50;99.90;;;;;;5010771;28;20536;-56
2023/03/12 00:42:59;;;;;;;7.88;3.40;;;0.60;99.90;;;;;;5025576;28;20035;-56
2023/03/12 00:45:45;;;;;;;4.50;3.25;;;0.60;99.90;;;;;;5015881;28;20033;-58
2023/03/12 00:48:31;;;;;;;5.18;3.83;;;0.50;99.90;;;;;;5029239;28;20041;-54
2023/03/12 00:51:18;;;;;;;7.63;3.92;;;0.50;99.90;;;;;;5025347;28;20083;-56
2023/03/12 00:54:04;;;;;;;6.90;3.42;;;0.60;99.90;;;;;;5023932;28;20040;-53
2023/03/12 00:56:50;;;;;;;6.72;3.67;;;0.50;99.90;;;;;;5029163;28;20513;-55
2023/03/12 00:59:39;;;;;;;7.97;3.60;;;0.40;99.90;;;;;;5011854;28;20083;-53
2023/03/12 01:02:25;;;;;;;7.22;3.55;;;0.50;99.90;;;;;;5025662;28;20501;-54
2023/03/12 01:05:12;;;;;;;10.55;3.72;;;0.40;99.90;;;;;;5013633;28;20029;-53
2023/03/12 01:07:58;;;;;;;5.60;3.38;;;0.40;99.90;;;;;;4994430;28;20179;-54
2023/03/12 01:10:44;;;;;;;7.78;3.83;;;0.40;99.90;;;;;;5018317;28;20036;-58
2023/03/12 01:13:30;;;;;;;6.10;3.20;;;0.50;99.90;;;;;;5018688;28;20061;-51
2023/03/12 01:16:16;;;;;;;5.88;3.22;;;0.40;99.90;;;;;;5024362;28;20901;-54
2023/03/12 01:19:03;;;;;;;8.18;3.80;;;0.40;99.90;;;;;;5019975;28;20033;-57
2023/03/12 01:21:49;;;;;;;9.48;3.58;;;0.30;99.90;;;;;;5021706;28;20080;-57
2023/03/12 01:24:35;;;;;;;5.30;4.18;;;0.30;99.90;;;;;;5015737;28;20076;-56
2023/03/12 01:27:21;;;;;;;7.70;3.70;;;0.40;99.90;;;;;;5013748;28;20048;-56
2023/03/12 01:30:07;;;;;;;6.55;3.80;;;0.50;99.90;;;;;;5019170;28;20057;-56
2023/03/12 01:32:53;;;;;;;5.30;3.30;;;0.30;99.90;;;;;;5006394;28;20033;-57
2023/03/12 01:35:40;;;;;;;5.85;2.97;;;0.30;99.90;;;;;;5026613;28;20450;-58
2023/03/12 01:38:26;;;;;;;11.35;3.30;;;0.20;99.90;;;;;;5025877;28;20029;-58
2023/03/12 01:41:12;;;;;;;7.63;3.55;;;0.10;99.90;;;;;;5023704;28;20075;-57
2023/03/12 01:44:02;;;;;;;7.57;3.65;;;0.20;99.90;;;;;;5031216;28;20017;-56
2023/03/12 01:46:48;;;;;;;7.32;3.83;;;0.20;99.90;;;;;;5028580;28;20032;-56
2023/03/12 01:49:34;;;;;;;5.70;3.55;;;0.20;99.90;;;;;;5030088;28;20669;-56
2023/03/12 01:52:26;;;;;;;5.65;3.30;;;0.30;99.90;;;;;;5031648;28;20430;-55
2023/03/12 01:55:16;;;;;;;6.25;3.90;;;0.20;99.90;;;;;;5029500;28;20477;-57
2023/03/12 01:58:02;;;;;;;8.20;3.75;;;0.20;99.90;;;;;;5026873;28;20041;-56
2023/03/12 02:00:48;;;;;;;5.55;3.42;;;0.20;99.90;;;;;;5019500;28;20076;-58
2023/03/12 02:03:35;;;;;;;6.53;3.63;;;0.20;99.90;;;;;;5015573;28;20087;-56
2023/03/12 02:06:31;;;;;;;6.10;3.70;;;0.20;99.90;;;;;;5016595;28;20121;-57
2023/03/12 02:09:20;;;;;;;6.78;4.07;;;0.20;99.90;;;;;;5032203;28;20088;-57
2023/03/12 02:12:07;;;;;;;8.88;4.07;;;0.30;99.90;;;;;;5030924;28;20029;-57
2023/03/12 02:14:53;;;;;;;9.52;3.60;;;0.30;99.90;;;;;;5030514;28;20037;-56
2023/03/12 02:17:39;;;;;;;7.07;3.85;;;0.20;99.90;;;;;;5031526;28;20035;-55
2023/03/12 02:21:00;;;;;;;7.40;3.42;;;0.30;99.90;;;;;;5016518;28;20033;-57
2023/03/12 02:23:58;;;;;;;8.25;3.50;;;0.10;99.90;;;;;;5030980;28;20037;-56
2023/03/12 02:26:45;;;;;;;5.80;3.90;;;0.10;99.90;;;;;;5031073;28;20025;-57
2023/03/12 02:29:33;;;;;;;6.68;3.30;;;0.10;99.90;;;;;;5031718;28;20080;-56
2023/03/12 02:32:27;;;;;;;6.97;3.72;;;0.10;99.90;;;;;;5029340;28;20077;-53
2023/03/12 02:35:16;;;;;;;9.07;3.50;;;0.10;99.90;;;;;;5031108;28;20022;-56
2023/03/12 02:38:03;;;;;;;4.65;3.47;;;0.10;99.90;;;;;;5017058;28;20087;-57
2023/03/12 02:40:50;;;;;;;6.55;3.50;;;0.00;99.90;;;;;;5030220;28;20038;-54
2023/03/12 02:43:36;;;;;;;5.47;3.35;;;0.10;99.90;;;;;;5031103;28;20026;-54
2023/03/12 02:46:23;;;;;;;5.85;3.65;;;0.00;99.90;;;;;;5030757;28;20025;-57
2023/03/12 02:49:13;;;;;;;4.30;3.22;;;0.00;99.90;;;;;;5029236;28;20422;-51
2023/03/12 02:52:00;;;;;;;8.88;3.85;;;0.00;99.90;;;;;;5030736;28;20108;-62
2023/03/12 02:54:45;;;;;;;4.50;3.55;;;0.10;99.90;;;;;;5029634;28;20033;-60
2023/03/12 02:57:32;;;;;;;6.78;3.58;;;0.00;99.90;;;;;;5028023;28;20033;-58
2023/03/12 03:00:18;;;;;;;6.60;3.80;;;0.10;99.90;;;;;;5030074;28;20038;-55
2023/03/12 03:03:04;;;;;;;6.22;3.50;;;0.10;99.90;;;;;;5030347;28;20099;-57
2023/03/12 03:05:50;;;;;;;7.72;3.88;;;0.10;99.90;;;;;;5014754;28;20049;-55
2023/03/12 03:08:36;;;;;;;6.15;3.42;;;0.10;99.90;;;;;;5028865;28;20033;-57
2023/03/12 03:11:23;;;;;;;5.65;3.40;;;0.10;99.90;;;;;;5029937;28;20087;-56
2023/03/12 03:14:09;;;;;;;7.13;3.78;;;0.10;99.90;;;;;;5029208;28;20486;-57
2023/03/12 03:16:55;;;;;;;6.90;3.78;;;0.10;99.90;;;;;;5029664;28;20026;-55
2023/03/12 03:19:41;;;;;;;11.38;4.90;;;0.20;99.90;;;;;;5030175;28;20030;-55
2023/03/12 03:22:27;;;;;;;6.22;3.95;;;0.10;99.90;;;;;;5029348;28;20080;-55
2023/03/12 03:25:13;;;;;;;6.30;3.72;;;0.10;99.90;;;;;;5027072;28;20135;-58
2023/03/12 03:27:59;;;;;;;5.38;3.88;;;0.10;99.90;;;;;;5018221;28;20073;-55
2023/03/12 03:30:45;;;;;;;8.38;4.00;;;0.10;99.90;;;;;;5016596;28;20038;-56
2023/03/12 03:33:34;;;;;;;7.90;3.90;;;0.20;99.90;;;;;;5029829;28;20021;-58
2023/03/12 03:36:22;;;;;;;7.35;3.55;;;0.20;99.90;;;;;;5029340;28;20040;-53
2023/03/12 03:39:07;;;;;;;7.70;4.15;;;0.20;99.90;;;;;;5030004;28;20066;-58
2023/03/12 03:41:53;;;;;;;6.57;3.67;;;0.30;99.90;;;;;;5030318;28;20527;-57
2023/03/12 03:44:39;;;;;;;8.30;3.85;;;0.30;99.90;;;;;;5017645;28;20065;-57
2023/03/12 03:47:25;;;;;;;6.60;4.57;;;0.30;99.90;;;;;;5033618;28;20117;-58
2023/03/12 03:50:11;;;;;;;6.40;3.78;;;0.20;99.90;;;;;;5018904;28;20025;-58
2023/03/12 03:52:57;;;;;;;7.90;4.57;;;0.30;99.90;;;;;;5032516;28;20730;-57
2023/03/12 03:55:43;;;;;;;8.68;3.70;;;0.30;99.90;;;;;;5018646;28;20033;-55
2023/03/12 03:58:29;;;;;;;5.90;3.75;;;0.30;99.90;;;;;;4998769;28;20034;-58
2023/03/12 04:01:15;;;;;;;6.80;3.97;;;0.40;99.90;;;;;;5029802;28;20095;-58
2023/03/12 04:04:03;;;;;;;6.22;3.70;;;0.30;99.90;;;;;;5034398;28;20084;-55
2023/03/12 04:06:49;;;;;;;10.00;4.13;;;0.30;99.90;;;;;;5033571;28;20029;-59
2023/03/12 04:09:35;;;;;;;6.97;4.13;;;0.20;99.90;;;;;;5019869;28;20374;-60
2023/03/12 04:12:24;;;;;;;5.85;3.78;;;0.30;99.90;;;;;;5014250;28;20438;-58
2023/03/12 04:15:10;;;;;;;7.32;4.13;;;0.30;99.90;;;;;;5018969;28;20021;-58
2023/03/12 04:17:56;;;;;;;8.60;3.90;;;0.30;99.90;;;;;;5032758;28;20493;-58
2023/03/12 04:20:42;;;;;;;7.90;4.18;;;0.30;99.90;;;;;;5033762;28;20576;-57
2023/03/12 04:23:28;;;;;;;6.50;3.83;;;0.30;99.90;;;;;;5033146;28;20029;-58
2023/03/12 04:26:16;;;;;;;12.20;4.15;;;0.30;99.90;;;;;;5032608;28;20068;-58
2023/03/12 04:29:02;;;;;;;7.70;3.80;;;0.30;99.90;;;;;;5033262;28;20026;-57
2023/03/12 04:31:47;;;;;;;6.97;4.05;;;0.30;99.90;;;;;;5018101;28;20053;-57
2023/03/12 04:34:33;;;;;;;7.20;3.72;;;0.30;99.90;;;;;;5018333;28;20027;-59
2023/03/12 04:37:19;;;;;;;7.05;4.10;;;0.30;99.90;;;;;;5033074;28;20026;-50
2023/03/12 04:40:06;;;;;;;6.78;3.80;;;0.30;99.90;;;;;;5033362;28;20040;-58
2023/03/12 04:42:52;;;;;;;6.65;4.43;;;0.30;99.90;;;;;;5032640;28;20068;-56
2023/03/12 04:45:38;;;;;;;6.50;4.72;;;0.20;99.90;;;;;;5017968;28;20021;-56
2023/03/12 04:48:25;;;;;;;5.05;4.22;;;0.10;99.90;;;;;;5030617;28;20040;-58
2023/03/12 04:51:11;;;;;;;8.60;4.47;;;0.10;99.90;;;;;;5032710;28;20626;-55
2023/03/12 04:53:57;;;;;;;7.55;4.22;;;0.10;99.90;;;;;;5032433;28;20480;-54
2023/03/12 04:56:43;;;;;;;7.32;4.00;;;0.10;99.90;;;;;;5031170;28;20037;-59
2023/03/12 04:59:29;;;;;;;9.77;3.95;;;0.10;99.90;;;;;;5012891;28;20037;-57
2023/03/12 05:02:15;;;;;;;7.63;4.32;;;0.10;99.90;;;;;;5018218;28;20025;-56
2023/03/12 05:05:01;;;;;;;6.70;4.63;;;0.10;99.90;;;;;;5032895;28;20036;-55
2023/03/12 05:07:47;;;;;;;9.65;4.00;;;0.10;99.90;;;;;;5031404;28;20063;-52
2023/03/12 05:10:33;;;;;;;9.45;4.68;;;0.10;99.90;;;;;;5031082;28;20084;-53
2023/03/12 05:13:21;;;;;;;9.38;4.38;;;0.20;99.90;;;;;;5031674;28;20144;-55
2023/03/12 05:16:08;;;;;;;7.82;4.30;;;0.20;99.90;;;;;;5023265;28;20053;-51
2023/03/12 05:18:54;;;;;;;6.18;4.05;;;0.20;99.90;;;;;;5031438;28;20029;-55
2023/03/12 05:21:43;;;;;;;6.07;4.72;;;0.20;99.90;;;;;;5030728;28;20061;-53
2023/03/12 05:24:29;;;;;;;8.52;4.60;;;0.10;99.90;;;;;;5031839;28;20026;-56
2023/03/12 05:27:15;;;;;;;7.75;4.53;;;0.10;99.90;;;;;;5031661;28;20405;-58
2023/03/12 05:30:03;;;;;;;5.75;4.28;;;0.10;99.90;;;;;;5031634;28;20025;-54
2023/03/12 05:32:49;;;;;;;9.02;4.72;;;0.10;99.90;;;;;;5032609;28;20045;-56
2023/03/12 05:35:35;;;;;;;6.25;3.97;;;0.10;99.90;;;;;;5032178;28;20084;-52
2023/03/12 05:38:21;;;;;;;8.23;4.15;;;0.10;99.90;;;;;;5031658;28;20025;-56
2023/03/12 05:41:18;;;;;;;6.95;4.38;;;0.10;99.90;;;;;;5031704;28;20039;-54
2023/03/12 05:44:04;;;;;;;10.90;4.80;;;0.10;99.90;;;;;;5032724;28;20087;-54
2023/03/12 05:46:51;;;;;;;8.52;4.45;;;0.10;99.90;;;;;;5016760;28;20425;-54
2023/03/12 05:49:36;;;;;;;5.75;4.05;;;0.10;99.90;;;;;;5018050;28;20075;-52
2023/03/12 05:52:22;;;;;;;8.07;4.72;;;0.20;99.90;;;;;;5011995;28;20026;-54
2023/03/12 05:55:09;;;;;;;12.60;8.88;;;0.20;99.90;;;;;;5015216;28;20021;-54
2023/03/12 05:57:55;;;;;;;8.57;5.10;;;0.20;99.90;;;;;;5030690;28;20036;-53
2023/03/12 06:00:43;;;;;;;7.60;4.80;;;0.30;99.90;;;;;;5030862;28;20522;-51
2023/03/12 06:03:29;;;;;;;6.75;4.65;;;0.30;99.90;;;;;;5031050;28;20061;-52
2023/03/12 06:06:16;;;;;;;7.50;4.97;;;0.30;99.90;;;;;;5031380;28;20033;-56
2023/03/12 06:09:03;;;;;;;8.38;4.65;;;0.30;99.90;;;;;;5031638;28;20030;-55
2023/03/12 06:11:49;;;;;;;43.53;21.83;;;0.40;99.90;;;;;;5031148;28;20022;-54
2023/03/12 06:14:35;;;;;;;10.70;6.45;;;0.50;99.90;;;;;;5016300;28;20036;-61
2023/03/12 06:17:21;;;;;;;9.05;5.38;;;0.50;99.90;;;;;;5030243;28;20095;-57
2023/03/12 06:20:08;;;;;;;10.32;5.28;;;0.60;99.90;;;;;;5031314;28;20034;-56
2023/03/12 06:22:53;;;;;;;7.75;4.78;;;0.60;99.90;;;;;;5032071;28;20025;-54
2023/03/12 06:25:39;;;;;;;7.78;4.20;;;0.70;99.90;;;;;;5012587;28;20117;-54
2023/03/12 06:28:25;;;;;;;6.45;4.72;;;0.60;99.90;;;;;;5013393;28;20438;-53
2023/03/12 06:31:11;;;;;;;8.43;4.35;;;0.60;99.90;;;;;;5030825;28;20509;-54
2023/03/12 06:33:57;;;;;;;9.15;4.93;;;0.50;99.90;;;;;;5030163;28;20414;-56
2023/03/12 06:36:43;;;;;;;8.57;5.22;;;0.50;99.90;;;;;;5030928;28;20029;-55
2023/03/12 06:39:29;;;;;;;8.48;4.32;;;0.50;99.90;;;;;;5028901;28;20029;-54
2023/03/12 06:42:16;;;;;;;5.93;4.32;;;0.50;99.90;;;;;;5030378;28;20494;-58
2023/03/12 06:45:03;;;;;;;9.88;4.50;;;0.70;99.90;;;;;;5030335;28;20494;-59
2023/03/12 06:47:49;;;;;;;8.68;5.25;;;0.70;99.90;;;;;;5030131;28;20425;-56
2023/03/12 06:50:35;;;;;;;13.43;6.28;;;0.80;99.90;;;;;;5030379;28;20429;-55
2023/03/12 06:53:22;;;;;;;8.80;6.10;;;0.90;99.90;;;;;;5030086;28;20489;-54
2023/03/12 06:56:08;;;;;;;9.15;6.10;;;1.00;99.90;;;;;;5030902;28;20101;-59
2023/03/12 06:58:55;;;;;;;7.90;5.03;;;1.10;99.90;;;;;;5029981;28;20094;-55
2023/03/12 07:01:40;;;;;;;6.80;4.90;;;1.10;99.90;;;;;;5030529;28;20464;-56
2023/03/12 07:04:27;;;;;;;8.57;6.05;;;1.20;99.90;;;;;;5030020;28;20055;-56
2023/03/12 07:07:13;;;;;;;8.02;4.47;;;1.30;99.90;;;;;;5014942;28;20037;-56
2023/03/12 07:09:59;;;;;;;7.63;4.53;;;1.30;99.90;;;;;;5030723;28;20032;-56
2023/03/12 07:12:45;;;;;;;8.35;5.15;;;1.40;99.90;;;;;;5016690;28;20484;-57
2023/03/12 07:15:31;;;;;;;9.45;5.32;;;1.30;99.90;;;;;;5010610;28;20041;-58
2023/03/12 07:18:17;;;;;;;10.48;6.20;;;1.40;99.90;;;;;;5022923;28;20078;-56
2023/03/12 07:21:03;;;;;;;7.72;5.00;;;1.50;99.90;;;;;;5015632;28;20125;-56
2023/03/12 07:23:50;;;;;;;7.47;4.43;;;1.60;99.90;;;;;;5030516;28;20065;-55
2023/03/12 07:26:36;;;;;;;7.95;4.20;;;1.50;99.90;;;;;;5030991;28;20044;-56
2023/03/12 07:29:22;;;;;;;5.82;4.50;;;1.60;99.90;;;;;;5031501;28;20100;-57
2023/03/12 07:32:08;;;;;;;8.25;4.63;;;1.60;99.90;;;;;;5006686;28;20038;-56
2023/03/12 07:34:54;;;;;;;10.15;4.60;;;1.60;99.90;;;;;;5014969;28;20034;-52
2023/03/12 07:37:40;;;;;;;7.32;4.13;;;1.80;99.90;;;;;;5014781;28;20029;-54
2023/03/12 07:40:26;;;;;;;6.95;4.43;;;1.80;99.90;;;;;;5030625;28;20029;-56
2023/03/12 07:43:12;;;;;;;6.53;4.72;;;1.80;99.90;;;;;;5030441;28;20057;-54
2023/03/12 07:45:58;;;;;;;6.25;4.53;;;1.90;99.90;;;;;;5030230;28;20029;-57
2023/03/12 07:48:44;;;;;;;7.38;4.35;;;2.00;99.90;;;;;;5029983;28;20059;-58
2023/03/12 07:51:30;;;;;;;11.35;3.63;;;2.20;99.90;;;;;;5029803;28;20034;-55
2023/03/12 07:54:16;;;;;;;5.28;3.30;;;2.30;99.90;;;;;;5029315;28;20025;-54
2023/03/12 07:57:02;;;;;;;8.95;4.28;;;2.30;99.90;;;;;;5030021;28;20037;-54
2023/03/12 07:59:48;;;;;;;5.10;3.22;;;2.40;99.90;;;;;;5015693;28;20041;-55
2023/03/12 08:02:34;;;;;;;17.52;10.05;;;2.40;99.90;;;;;;5029705;28;20034;-53
2023/03/12 08:05:23;;;;;;;15.13;9.85;;;2.40;99.90;;;;;;5030531;28;20033;-55
2023/03/12 08:08:09;;;;;;;6.55;4.15;;;2.40;99.90;;;;;;5010438;28;20053;-58
2023/03/12 08:10:56;;;;;;;7.57;3.92;;;2.40;99.90;;;;;;5014129;28;20029;-55
2023/03/12 08:13:42;;;;;;;8.10;3.80;;;2.40;99.90;;;;;;5031054;28;20490;-55
2023/03/12 08:16:28;;;;;;;5.53;3.70;;;2.50;99.90;;;;;;5029119;28;20065;-54
2023/03/12 08:19:14;;;;;;;5.90;3.92;;;2.60;99.90;;;;;;5028335;28;20052;-54
2023/03/12 08:22:00;;;;;;;5.10;3.80;;;2.70;99.90;;;;;;5029166;28;20029;-55
2023/03/12 08:24:46;;;;;;;6.65;3.95;;;2.70;99.90;;;;;;5029939;28;20037;-54
2023/03/12 08:27:32;;;;;;;7.05;3.53;;;2.90;99.90;;;;;;5028893;28;20040;-52
2023/03/12 08:30:18;;;;;;;5.45;3.75;;;3.10;99.90;;;;;;5002217;28;20025;-57
2023/03/12 08:33:04;;;;;;;10.52;5.72;;;3.20;99.90;;;;;;5033557;28;20093;-55
2023/03/12 08:35:50;;;;;;;8.65;4.00;;;3.40;99.90;;;;;;5032682;28;20032;-56
2023/03/12 08:38:36;;;;;;;7.45;4.45;;;3.50;99.90;;;;;;5032285;28;20095;-54
2023/03/12 08:41:22;;;;;;;7.72;4.25;;;3.50;99.80;;;;;;5018674;28;20537;-56
2023/03/12 08:44:08;;;;;;;7.97;4.20;;;3.50;99.90;;;;;;5033271;28;20040;-58
2023/03/12 08:46:54;;;;;;;9.70;3.88;;;3.40;99.90;;;;;;5030922;28;20029;-56
2023/03/12 08:49:40;;;;;;;6.15;3.90;;;3.50;99.90;;;;;;4998260;28;20076;-56
2023/03/12 08:52:27;;;;;;;6.78;3.95;;;3.50;99.60;;;;;;5013882;28;20026;-59
2023/03/12 08:55:13;;;;;;;7.78;4.15;;;3.60;99.30;;;;;;5018406;28;20083;-57
2023/03/12 08:57:59;;;;;;;6.38;3.75;;;3.70;99.00;;;;;;5031030;28;20033;-52
2023/03/12 09:00:45;;;;;;;6.70;3.35;;;3.80;99.00;;;;;;5032572;28;20030;-53
2023/03/12 09:03:31;;;;;;;9.15;4.30;;;3.80;99.10;;;;;;5017588;28;20036;-55
2023/03/12 09:06:18;;;;;;;10.07;3.80;;;3.80;98.50;;;;;;5019820;28;20066;-58
2023/03/12 09:09:05;;;;;;;6.88;3.25;;;3.80;98.80;;;;;;5032390;28;20037;-54
2023/03/12 09:11:51;;;;;;;6.95;3.67;;;3.70;98.50;;;;;;5023438;28;20026;-58
2023/03/12 09:14:37;;;;;;;8.93;5.68;;;3.70;98.70;;;;;;4999489;28;20026;-53
2023/03/12 09:17:23;;;;;;;4.75;3.65;;;3.80;98.50;;;;;;5002032;28;20025;-54
2023/03/12 09:20:13;;;;;;;7.85;4.32;;;3.90;98.40;;;;;;5028515;28;20059;-57
2023/03/12 09:22:58;;;;;;;6.30;3.70;;;4.00;98.30;;;;;;5025654;28;20116;-56
2023/03/12 09:25:46;;;;;;;5.07;3.60;;;4.10;98.30;;;;;;5025759;28;20040;-55
2023/03/12 09:28:31;;;;;;;6.07;3.97;;;4.20;98.30;;;;;;5019208;28;20486;-54
2023/03/12 09:31:17;;;;;;;4.97;3.60;;;4.30;98.40;;;;;;5023096;28;20065;-57
2023/03/12 09:34:04;;;;;;;7.57;3.40;;;4.50;98.00;;;;;;5031583;28;20404;-56
2023/03/12 09:36:51;;;;;;;6.82;3.60;;;4.70;97.60;;;;;;5025102;28;20034;-57
2023/03/12 09:39:36;;;;;;;6.03;3.50;;;4.90;97.10;;;;;;5029595;28;20040;-52
2023/03/12 09:42:40;;;;;;;4.13;3.28;;;4.90;96.40;;;;;;5031315;28;20036;-54
2023/03/12 09:45:29;;;;;;;7.30;3.05;;;4.90;96.80;;;;;;5012677;28;20522;-56
2023/03/12 09:48:33;;;;;;;11.43;3.67;;;5.00;96.70;;;;;;5001660;28;20029;-58
2023/03/12 09:51:37;;;;;;;4.82;2.97;;;5.00;96.20;;;;;;5032175;28;20159;-58
2023/03/12 09:54:33;;;;;;;6.43;3.33;;;4.90;96.00;;;;;;5023121;28;20025;-59
2023/03/12 09:57:26;;;;;;;6.53;3.63;;;4.90;96.10;;;;;;5026378;28;20112;-57
2023/03/12 10:00:16;;;;;;;5.13;3.47;;;4.90;96.00;;;;;;5030635;28;20063;-54
2023/03/12 10:03:19;;;;;;;7.15;3.97;;;4.90;95.90;;;;;;5030157;28;20422;-57
2023/03/12 10:06:14;;;;;;;5.50;3.35;;;5.00;96.00;;;;;;5030403;28;20100;-59
2023/03/12 10:09:22;;;;;;;25.08;14.63;;;5.00;95.60;;;;;;5031441;28;20116;-56
2023/03/12 10:12:30;;;;;;;9.40;5.43;;;4.90;96.00;;;;;;5031484;28;20075;-54
2023/03/12 10:15:37;;;;;;;5.13;3.08;;;5.00;95.90;;;;;;5030596;28;20021;-52
2023/03/12 10:18:47;;;;;;;6.40;3.13;;;5.00;95.00;;;;;;5030287;28;20017;-55
2023/03/12 10:21:58;;;;;;;4.57;3.30;;;5.00;94.50;;;;;;5030523;28;20566;-58
2023/03/12 10:25:20;;;;;;;6.28;3.00;;;5.10;94.60;;;;;;5030678;28;20509;-57
2023/03/12 10:28:18;;;;;;;6.50;3.58;;;5.20;93.50;;;;;;5017507;28;20033;-57
2023/03/12 10:31:12;;;;;;;7.05;3.28;;;5.20;93.50;;;;;;5030272;28;20065;-55
2023/03/12 10:34:00;;;;;;;4.45;2.92;;;5.40;93.70;;;;;;5022593;28;20022;-55
2023/03/12 10:36:46;;;;;;;5.28;3.58;;;5.60;95.90;;;;;;5021710;28;20037;-58
2023/03/12 10:39:32;;;;;;;7.00;3.13;;;6.00;93.00;;;;;;5003832;28;20038;-58
2023/03/12 10:42:24;;;;;;;6.65;3.40;;;6.00;92.40;;;;;;5020590;28;20034;-56
2023/03/12 10:45:10;;;;;;;5.60;3.92;;;5.90;92.20;;;;;;5029437;28;20025;-57
2023/03/12 10:48:00;;;;;;;6.53;3.42;;;5.80;92.00;;;;;;5029337;28;20489;-58
2023/03/12 10:51:05;;;;;;;7.07;3.28;;;5.80;91.80;;;;;;5020013;28;20028;-58
2023/03/12 10:53:51;;;;;;;4.53;3.30;;;5.70;91.70;;;;;;5020240;28;20032;-55
2023/03/12 10:56:49;;;;;;;7.80;3.63;;;5.90;92.80;;;;;;5018852;28;20036;-57
2023/03/12 10:59:42;;;;;;;5.50;3.50;;;5.80;91.10;;;;;;5026856;28;20510;-57
2023/03/12 11:02:37;;;;;;;8.90;3.42;;;5.70;91.40;;;;;;5026447;28;20029;-55
2023/03/12 11:05:35;;;;;;;7.05;3.83;;;5.70;91.00;;;;;;5027806;28;20524;-56
2023/03/12 11:08:23;;;;;;;7.50;4.32;;;5.70;91.30;;;;;;5024006;28;20473;-58
2023/03/12 11:11:09;;;;;;;8.70;4.93;;;5.70;91.10;;;;;;5029147;28;20021;-58
2023/03/12 11:14:16;;;;;;;7.78;4.15;;;6.10;91.90;;;;;;5021088;28;20084;-56
2023/03/12 11:17:20;;;;;;;7.43;4.28;;;6.10;91.60;;;;;;5020158;28;20052;-58
2023/03/12 11:20:26;;;;;;;8.10;4.85;;;6.00;91.60;;;;;;5018254;28;20120;-53
2023/03/12 11:23:22;;;;;;;12.43;4.75;;;5.80;92.40;;;;;;5024542;28;20026;-55
2023/03/12 11:26:28;;;;;;;7.60;4.55;;;5.80;92.10;;;;;;5024522;28;20026;-53
2023/03/12 11:29:25;;;;;;;6.75;4.10;;;5.70;92.20;;;;;;5024035;28;20033;-61
2023/03/12 11:32:36;;;;;;;8.18;4.32;;;5.70;92.80;;;;;;5019579;28;20053;-55
2023/03/12 11:35:56;;;;;;;7.32;4.22;;;5.70;93.30;;;;;;5023540;28;20452;-56
2023/03/12 11:39:06;;;;;;;6.07;4.32;;;5.80;93.20;;;;;;5013172;28;20100;-56
2023/03/12 11:42:10;;;;;;;6.22;4.68;;;5.90;93.00;;;;;;5027701;28;20026;-58
2023/03/12 11:45:24;;;;;;;8.60;4.90;;;6.00;93.30;;;;;;5020114;28;20100;-55
2023/03/12 11:48:54;;;;;;;6.28;3.78;;;6.00;93.00;;;;;;5021391;28;20033;-57
2023/03/12 11:51:49;;;;;;;6.30;4.05;;;5.80;92.30;;;;;;5012107;28;20024;-59
2023/03/12 11:54:58;;;;;;;8.05;4.53;;;5.60;92.10;;;;;;5018373;28;20026;-55
2023/03/12 11:58:00;;;;;;;8.93;4.07;;;5.70;92.50;;;;;;5016470;28;20029;-51
2023/03/12 12:01:15;;;;;;;6.60;4.78;;;5.60;92.40;;;;;;5024853;28;20041;-57
2023/03/12 12:04:15;;;;;;;7.07;3.95;;;5.70;92.50;;;;;;5010951;28;20041;-54
2023/03/12 12:07:07;;;;;;;7.55;3.97;;;5.80;92.40;;;;;;5029389;28;20135;-59
2023/03/12 12:10:07;;;;;;;5.95;3.90;;;5.80;92.00;;;;;;5026886;28;20018;-53
2023/03/12 12:13:21;;;;;;;7.55;4.20;;;5.80;91.70;;;;;;5027722;28;20049;-55
2023/03/12 12:16:21;;;;;;;7.78;4.45;;;5.80;92.00;;;;;;5029388;28;20489;-59
2023/03/12 12:19:26;;;;;;;8.20;4.63;;;5.80;92.20;;;;;;5027538;28;20030;-55
2023/03/12 12:22:21;;;;;;;5.82;3.97;;;5.80;92.60;;;;;;5028570;28;20175;-56
2023/03/12 12:25:24;;;;;;;6.45;4.47;;;5.80;92.80;;;;;;5025249;28;20136;-60
2023/03/12 12:29:07;;;;;;;8.45;4.65;;;5.80;93.10;;;;;;5028782;28;20124;-53
2023/03/12 12:31:54;;;;;;;9.73;4.80;;;5.80;92.70;;;;;;4924941;29;20024;-57
2023/03/12 12:35:03;;;;;;;7.18;4.30;;;5.80;92.70;;;;;;4929521;29;20083;-57
2023/03/12 12:38:18;;;;;;;5.95;4.15;;;5.80;92.80;;;;;;5024718;28;20064;-57
2023/03/12 12:41:13;;;;;;;6.60;4.20;;;6.00;92.70;;;;;;5025963;28;20095;-55
2023/03/12 12:44:28;;;;;;;7.40;4.35;;;5.90;92.60;;;;;;5029978;28;20114;-56
2023/03/12 12:47:19;;;;;;;6.80;4.35;;;5.90;92.70;;;;;;5031452;28;20021;-59
2023/03/12 12:50:12;;;;;;;5.93;3.85;;;6.00;92.80;;;;;;5028242;28;20072;-50
2023/03/12 12:53:25;;;;;;;8.30;4.28;;;6.00;93.20;;;;;;5019554;28;20074;-52
2023/03/12 12:56:21;;;;;;;8.32;4.50;;;5.90;93.90;;;;;;5018192;28;20452;-55
2023/03/12 12:59:30;;;;;;;5.80;4.15;;;5.60;94.20;;;;;;5021971;28;20021;-54
2023/03/12 13:02:20;;;;;;;6.57;4.30;;;5.60;94.70;;;;;;5028082;28;20653;-57
2023/03/12 13:05:25;;;;;;;6.82;4.30;;;5.60;94.90;;;;;;5017688;28;20083;-56
2023/03/12 13:08:30;;;;;;;;;;;5.80;94.90;;;;;;5020738;28;20025;-60
2023/03/12 13:11:16;;;;;;;8.05;4.13;;;5.70;95.70;;;;;;5018662;28;19905;-59
2023/03/12 13:14:02;;;;;;;8.57;5.13;;;5.70;96.30;;;;;;5031709;28;20108;-60
2023/03/12 13:16:49;;;;;;;5.70;3.80;;;5.60;97.10;;;;;;5031379;28;20112;-57
2023/03/12 13:19:40;;;;;;;7.45;4.00;;;5.60;97.30;;;;;;5031972;28;20029;-61
2023/03/12 13:22:36;;;;;;;8.27;4.38;;;5.60;98.80;;;;;;5011775;28;20405;-59
2023/03/12 13:25:29;;;;;;;9.02;4.97;;;5.50;99.90;;;;;;5019763;28;20149;-59
2023/03/12 13:28:29;;;;;;;9.38;4.88;;;5.20;99.90;;;;;;5030057;28;20063;-58
2023/03/12 13:31:27;;;;;;;7.30;3.78;;;5.00;99.90;;;;;;5022137;28;20071;-60
2023/03/12 13:34:19;;;;;;;5.78;4.00;;;5.00;99.90;;;;;;5013266;28;20032;-60
2023/03/12 13:37:18;;;;;;;9.15;4.53;;;5.00;99.90;;;;;;5019379;28;20041;-56
2023/03/12 13:40:30;;;;;;;6.85;4.72;;;5.10;99.90;;;;;;5021796;28;20116;-60
2023/03/12 13:43:40;;;;;;;7.10;3.78;;;5.20;99.90;;;;;;5030946;28;20053;-58
2023/03/12 13:46:44;;;;;;;7.25;3.95;;;5.30;99.90;;;;;;5007133;28;20516;-56
2023/03/12 13:49:39;;;;;;;5.55;4.13;;;5.30;99.90;;;;;;5022036;28;20084;-54
2023/03/12 13:52:46;;;;;;;12.30;8.25;;;5.30;99.90;;;;;;5015670;28;20053;-57
2023/03/12 13:55:34;;;;;;;7.40;4.70;;;5.30;99.90;;;;;;5007126;28;20030;-60
2023/03/12 13:58:22;;;;;;;10.68;4.68;;;5.30;99.90;;;;;;5017655;28;20505;-59
2023/03/12 14:01:15;;;;;;;5.93;3.83;;;5.30;99.90;;;;;;5018622;28;20047;-58
2023/03/12 14:04:09;;;;;;;7.28;4.03;;;5.40;99.90;;;;;;5010852;28;20030;-57
2023/03/12 14:07:01;;;;;;;12.57;4.28;;;5.40;99.90;;;;;;5017970;28;20513;-57
2023/03/12 14:09:49;;;;;;;7.45;4.28;;;5.40;99.90;;;;;;5027288;28;20032;-61
2023/03/12 14:12:51;;;;;;;6.75;4.10;;;5.30;99.90;;;;;;5024579;28;20013;-56
2023/03/12 14:16:05;;;;;;;7.63;4.40;;;5.10;99.90;;;;;;5023268;28;20022;-57
2023/03/12 14:18:51;;;;;;;9.73;4.53;;;5.20;99.90;;;;;;5019044;28;20421;-59
2023/03/12 14:21:43;;;;;;;9.05;4.78;;;5.10;99.90;;;;;;5015246;28;20457;-58
2023/03/12 14:24:35;;;;;;;11.57;4.60;;;5.20;99.90;;;;;;4987507;28;20038;-60
2023/03/12 14:27:26;;;;;;;10.15;5.35;;;5.20;99.90;;;;;;5017458;28;20025;-60
2023/03/12 14:30:23;;;;;;;12.18;7.00;;;5.20;99.90;;;;;;5020870;28;21215;-56
2023/03/12 14:33:13;;;;;;;13.40;6.03;;;5.30;99.90;;;;;;5023597;28;20030;-57
2023/03/12 14:36:10;;;;;;;9.63;5.60;;;5.30;99.90;;;;;;5012613;28;20038;-52
2023/03/12 14:39:28;;;;;;;9.63;5.13;;;5.40;99.90;;;;;;5004100;28;20041;-57
2023/03/12 14:42:33;;;;;;;6.50;4.60;;;5.60;99.90;;;;;;5018512;28;20406;-59
2023/03/12 14:45:25;;;;;;;11.30;4.88;;;5.70;99.90;;;;;;5028048;28;20017;-57
2023/03/12 14:48:11;;;;;;;8.27;4.82;;;5.80;99.90;;;;;;5019738;28;20092;-57
2023/03/12 14:50:59;;;;;;;7.88;4.40;;;5.60;99.90;;;;;;5024418;28;20220;-57
2023/03/12 14:53:45;;;;;;;9.05;5.10;;;5.50;99.90;;;;;;5013588;28;20029;-60
2023/03/12 14:56:34;;;;;;;9.13;5.07;;;5.20;99.90;;;;;;5027584;28;20033;-58
2023/03/12 14:59:26;;;;;;;6.72;4.68;;;5.10;99.90;;;;;;5026493;28;20091;-60